sensor_id;sensor_type;location;lat;lon;timestamp;P1;durP1;ratioP1;P2;durP2;ratioP2
28613;SDS011;15806;53.548;9.964;2024-02-14T00:01:05;5.03;;;1.90;;
28613;SDS011;15806;53.548;9.964;2024-02-14T00:02:46;7.63;;;1.90;;
28613;SDS011;15806;53.548;9.964;2024-02-14T00:04:26;4.15;;;1.95;;
28613;SDS011;15806;53.548;9.964;2024-02-14T00:06:07;3.40;;;1.93;;
28613;SDS011;15806;53.548;9.964;2024-02-14T00:07:47;4.33;;;1.33;;
28613;SDS011;15806;53.548;9.964;2024-02-14T00:09:28;3.93;;;1.70;;
28613;SDS011;15806;53.548;9.964;2024-02-14T00:11:08;9.17;;;1.93;;
28613;SDS011;15806;53.548;9.964;2024-02-14T00:12:49;6.40;;;1.90;;
28613;SDS011;15806;53.548;9.964;2024-02-14T00:14:29;9.33;;;2.20;;
28613;SDS011;15806;53.548;9.964;2024-02-14T00:16:10;5.33;;;1.93;;
28613;SDS011;15806;53.548;9.964;2024-02-14T00:17:50;6.27;;;1.50;;
28613;SDS011;15806;53.548;9.964;2024-02-14T00:19:31;2.60;;;1.47;;
28613;SDS011;15806;53.548;9.964;2024-02-14T00:21:12;3.42;;;1.48;;
28613;SDS011;15806;53.548;9.964;2024-02-14T00:22:52;2.97;;;1.63;;
28613;SDS011;15806;53.548;9.964;2024-02-14T00:24:33;5.80;;;2.50;;
28613;SDS011;15806;53.548;9.964;2024-02-14T00:26:13;9.23;;;2.10;;
28613;SDS011;15806;53.548;9.964;2024-02-14T00:27:54;3.37;;;1.50;;
28613;SDS011;15806;53.548;9.964;2024-02-14T00:29:34;8.07;;;1.33;;
28613;SDS011;15806;53.548;9.964;2024-02-14T00:31:15;4.30;;;1.57;;
28613;SDS011;15806;53.548;9.964;2024-02-14T00:32:56;6.57;;;1.33;;
28613;SDS011;15806;53.548;9.964;2024-02-14T00:34:36;7.27;;;1.57;;
28613;SDS011;15806;53.548;9.964;2024-02-14T00:36:17;5.87;;;1.50;;
28613;SDS011;15806;53.548;9.964;2024-02-14T00:37:57;8.27;;;1.60;;
28613;SDS011;15806;53.548;9.964;2024-02-14T00:39:38;14.93;;;1.70;;
28613;SDS011;15806;53.548;9.964;2024-02-14T00:41:18;2.83;;;1.33;;
28613;SDS011;15806;53.548;9.964;2024-02-14T00:42:59;5.30;;;1.50;;
28613;SDS011;15806;53.548;9.964;2024-02-14T00:44:39;2.30;;;1.47;;
28613;SDS011;15806;53.548;9.964;2024-02-14T00:46:20;3.57;;;1.63;;
28613;SDS011;15806;53.548;9.964;2024-02-14T00:48:01;4.47;;;1.40;;
28613;SDS011;15806;53.548;9.964;2024-02-14T00:49:41;6.07;;;1.35;;
28613;SDS011;15806;53.548;9.964;2024-02-14T00:51:22;5.17;;;1.60;;
28613;SDS011;15806;53.548;9.964;2024-02-14T00:53:03;6.40;;;1.50;;
28613;SDS011;15806;53.548;9.964;2024-02-14T00:54:43;2.93;;;1.23;;
28613;SDS011;15806;53.548;9.964;2024-02-14T00:56:24;9.43;;;1.40;;
28613;SDS011;15806;53.548;9.964;2024-02-14T00:58:04;2.80;;;1.10;;
28613;SDS011;15806;53.548;9.964;2024-02-14T00:59:45;2.47;;;1.30;;
28613;SDS011;15806;53.548;9.964;2024-02-14T01:01:25;2.53;;;1.20;;
28613;SDS011;15806;53.548;9.964;2024-02-14T01:03:06;7.77;;;1.90;;
28613;SDS011;15806;53.548;9.964;2024-02-14T01:04:47;3.20;;;2.03;;
28613;SDS011;15806;53.548;9.964;2024-02-14T01:06:27;4.37;;;1.47;;
28613;SDS011;15806;53.548;9.964;2024-02-14T01:08:10;4.15;;;1.30;;
28613;SDS011;15806;53.548;9.964;2024-02-14T01:09:56;3.07;;;1.07;;
28613;SDS011;15806;53.548;9.964;2024-02-14T01:11:40;3.15;;;1.55;;
28613;SDS011;15806;53.548;9.964;2024-02-14T01:13:20;5.47;;;1.60;;
28613;SDS011;15806;53.548;9.964;2024-02-14T01:15:01;5.20;;;1.60;;
28613;SDS011;15806;53.548;9.964;2024-02-14T01:16:42;4.87;;;1.20;;
28613;SDS011;15806;53.548;9.964;2024-02-14T01:18:23;3.05;;;1.33;;
28613;SDS011;15806;53.548;9.964;2024-02-14T01:20:04;3.00;;;1.13;;
28613;SDS011;15806;53.548;9.964;2024-02-14T01:21:46;2.67;;;1.38;;
28613;SDS011;15806;53.548;9.964;2024-02-14T01:23:26;5.77;;;1.53;;
28613;SDS011;15806;53.548;9.964;2024-02-14T01:25:07;3.92;;;1.63;;
28613;SDS011;15806;53.548;9.964;2024-02-14T01:26:48;3.92;;;2.03;;
28613;SDS011;15806;53.548;9.964;2024-02-14T01:28:28;2.23;;;1.57;;
28613;SDS011;15806;53.548;9.964;2024-02-14T01:30:09;5.00;;;1.40;;
28613;SDS011;15806;53.548;9.964;2024-02-14T01:31:50;3.17;;;1.35;;
28613;SDS011;15806;53.548;9.964;2024-02-14T01:33:31;5.37;;;1.50;;
28613;SDS011;15806;53.548;9.964;2024-02-14T01:35:11;7.40;;;1.47;;
28613;SDS011;15806;53.548;9.964;2024-02-14T01:36:52;5.80;;;1.57;;
28613;SDS011;15806;53.548;9.964;2024-02-14T01:38:32;2.97;;;1.50;;
28613;SDS011;15806;53.548;9.964;2024-02-14T01:40:13;9.37;;;2.27;;
28613;SDS011;15806;53.548;9.964;2024-02-14T01:41:54;3.90;;;1.20;;
28613;SDS011;15806;53.548;9.964;2024-02-14T01:43:35;2.57;;;1.37;;
28613;SDS011;15806;53.548;9.964;2024-02-14T01:45:15;9.23;;;2.23;;
28613;SDS011;15806;53.548;9.964;2024-02-14T01:46:56;2.77;;;1.47;;
28613;SDS011;15806;53.548;9.964;2024-02-14T01:48:36;2.73;;;1.60;;
28613;SDS011;15806;53.548;9.964;2024-02-14T01:51:59;7.53;;;1.83;;
28613;SDS011;15806;53.548;9.964;2024-02-14T01:53:42;2.63;;;1.40;;
28613;SDS011;15806;53.548;9.964;2024-02-14T01:55:23;5.10;;;1.60;;
28613;SDS011;15806;53.548;9.964;2024-02-14T01:57:04;4.00;;;1.45;;
28613;SDS011;15806;53.548;9.964;2024-02-14T01:58:45;6.45;;;1.30;;
28613;SDS011;15806;53.548;9.964;2024-02-14T02:00:27;4.53;;;1.67;;
28613;SDS011;15806;53.548;9.964;2024-02-14T02:02:08;7.03;;;1.60;;
28613;SDS011;15806;53.548;9.964;2024-02-14T02:03:48;2.80;;;1.63;;
28613;SDS011;15806;53.548;9.964;2024-02-14T02:05:29;4.53;;;1.63;;
28613;SDS011;15806;53.548;9.964;2024-02-14T02:07:10;2.60;;;1.60;;
28613;SDS011;15806;53.548;9.964;2024-02-14T02:08:50;2.00;;;1.20;;
28613;SDS011;15806;53.548;9.964;2024-02-14T02:10:31;5.93;;;1.60;;
28613;SDS011;15806;53.548;9.964;2024-02-14T02:12:11;5.20;;;2.00;;
28613;SDS011;15806;53.548;9.964;2024-02-14T02:13:52;3.77;;;1.27;;
28613;SDS011;15806;53.548;9.964;2024-02-14T02:15:32;7.50;;;1.73;;
28613;SDS011;15806;53.548;9.964;2024-02-14T02:17:13;6.27;;;1.70;;
28613;SDS011;15806;53.548;9.964;2024-02-14T02:18:53;4.53;;;1.63;;
28613;SDS011;15806;53.548;9.964;2024-02-14T02:20:34;4.10;;;1.53;;
28613;SDS011;15806;53.548;9.964;2024-02-14T02:22:14;3.53;;;1.47;;
28613;SDS011;15806;53.548;9.964;2024-02-14T02:23:55;2.03;;;1.67;;
28613;SDS011;15806;53.548;9.964;2024-02-14T02:25:35;3.43;;;1.83;;
28613;SDS011;15806;53.548;9.964;2024-02-14T02:27:16;2.83;;;1.47;;
28613;SDS011;15806;53.548;9.964;2024-02-14T02:28:56;3.83;;;2.10;;
28613;SDS011;15806;53.548;9.964;2024-02-14T02:30:37;4.17;;;1.90;;
28613;SDS011;15806;53.548;9.964;2024-02-14T02:32:18;6.15;;;1.92;;
28613;SDS011;15806;53.548;9.964;2024-02-14T02:33:58;5.23;;;1.63;;
28613;SDS011;15806;53.548;9.964;2024-02-14T02:35:41;8.83;;;1.70;;
28613;SDS011;15806;53.548;9.964;2024-02-14T02:37:22;4.03;;;1.60;;
28613;SDS011;15806;53.548;9.964;2024-02-14T02:39:02;3.00;;;1.70;;
28613;SDS011;15806;53.548;9.964;2024-02-14T02:40:43;4.32;;;1.75;;
28613;SDS011;15806;53.548;9.964;2024-02-14T02:42:24;4.90;;;1.67;;
28613;SDS011;15806;53.548;9.964;2024-02-14T02:44:04;3.33;;;1.80;;
28613;SDS011;15806;53.548;9.964;2024-02-14T02:45:45;5.77;;;1.43;;
28613;SDS011;15806;53.548;9.964;2024-02-14T02:47:25;7.33;;;1.73;;
28613;SDS011;15806;53.548;9.964;2024-02-14T02:49:07;8.37;;;2.03;;
28613;SDS011;15806;53.548;9.964;2024-02-14T02:50:47;7.45;;;2.00;;
28613;SDS011;15806;53.548;9.964;2024-02-14T02:52:28;5.13;;;1.80;;
28613;SDS011;15806;53.548;9.964;2024-02-14T02:54:08;2.73;;;1.90;;
28613;SDS011;15806;53.548;9.964;2024-02-14T02:55:49;3.73;;;1.77;;
28613;SDS011;15806;53.548;9.964;2024-02-14T02:57:29;6.10;;;2.17;;
28613;SDS011;15806;53.548;9.964;2024-02-14T02:59:10;5.60;;;2.00;;
28613;SDS011;15806;53.548;9.964;2024-02-14T03:00:50;6.63;;;2.00;;
28613;SDS011;15806;53.548;9.964;2024-02-14T03:02:31;4.93;;;1.60;;
28613;SDS011;15806;53.548;9.964;2024-02-14T03:04:11;4.73;;;2.27;;
28613;SDS011;15806;53.548;9.964;2024-02-14T03:05:52;6.17;;;2.43;;
28613;SDS011;15806;53.548;9.964;2024-02-14T03:07:32;6.97;;;3.90;;
28613;SDS011;15806;53.548;9.964;2024-02-14T03:09:13;5.33;;;2.23;;
28613;SDS011;15806;53.548;9.964;2024-02-14T03:10:53;7.17;;;2.90;;
28613;SDS011;15806;53.548;9.964;2024-02-14T03:12:34;5.80;;;2.10;;
28613;SDS011;15806;53.548;9.964;2024-02-14T03:14:14;4.87;;;2.20;;
28613;SDS011;15806;53.548;9.964;2024-02-14T03:15:55;4.70;;;2.00;;
28613;SDS011;15806;53.548;9.964;2024-02-14T03:17:35;4.73;;;2.20;;
28613;SDS011;15806;53.548;9.964;2024-02-14T03:19:16;8.13;;;2.20;;
28613;SDS011;15806;53.548;9.964;2024-02-14T03:20:56;10.17;;;2.33;;
28613;SDS011;15806;53.548;9.964;2024-02-14T03:22:37;6.63;;;2.03;;
28613;SDS011;15806;53.548;9.964;2024-02-14T03:24:17;11.53;;;2.37;;
28613;SDS011;15806;53.548;9.964;2024-02-14T03:25:58;6.43;;;2.20;;
28613;SDS011;15806;53.548;9.964;2024-02-14T03:27:38;5.03;;;2.57;;
28613;SDS011;15806;53.548;9.964;2024-02-14T03:29:19;5.27;;;1.77;;
28613;SDS011;15806;53.548;9.964;2024-02-14T03:31:01;5.63;;;2.20;;
28613;SDS011;15806;53.548;9.964;2024-02-14T03:32:41;8.83;;;2.77;;
28613;SDS011;15806;53.548;9.964;2024-02-14T03:34:26;4.05;;;1.83;;
28613;SDS011;15806;53.548;9.964;2024-02-14T03:36:06;6.77;;;2.27;;
28613;SDS011;15806;53.548;9.964;2024-02-14T03:37:47;4.87;;;2.27;;
28613;SDS011;15806;53.548;9.964;2024-02-14T03:39:29;3.22;;;2.20;;
28613;SDS011;15806;53.548;9.964;2024-02-14T03:41:10;5.75;;;1.95;;
28613;SDS011;15806;53.548;9.964;2024-02-14T03:42:50;3.43;;;1.77;;
28613;SDS011;15806;53.548;9.964;2024-02-14T03:44:31;9.77;;;2.40;;
28613;SDS011;15806;53.548;9.964;2024-02-14T03:46:11;6.57;;;2.17;;
28613;SDS011;15806;53.548;9.964;2024-02-14T03:47:52;12.60;;;2.73;;
28613;SDS011;15806;53.548;9.964;2024-02-14T03:49:32;4.00;;;2.20;;
28613;SDS011;15806;53.548;9.964;2024-02-14T03:51:13;4.20;;;2.03;;
28613;SDS011;15806;53.548;9.964;2024-02-14T03:52:53;5.35;;;2.17;;
28613;SDS011;15806;53.548;9.964;2024-02-14T03:54:34;3.70;;;2.20;;
28613;SDS011;15806;53.548;9.964;2024-02-14T03:56:15;5.23;;;2.47;;
28613;SDS011;15806;53.548;9.964;2024-02-14T03:57:55;10.50;;;2.30;;
28613;SDS011;15806;53.548;9.964;2024-02-14T03:59:36;8.70;;;2.63;;
28613;SDS011;15806;53.548;9.964;2024-02-14T04:01:17;9.02;;;2.97;;
28613;SDS011;15806;53.548;9.964;2024-02-14T04:02:57;8.47;;;3.43;;
28613;SDS011;15806;53.548;9.964;2024-02-14T04:04:38;7.47;;;3.27;;
28613;SDS011;15806;53.548;9.964;2024-02-14T04:06:18;9.57;;;3.40;;
28613;SDS011;15806;53.548;9.964;2024-02-14T04:07:59;5.27;;;2.60;;
28613;SDS011;15806;53.548;9.964;2024-02-14T04:09:40;6.27;;;2.60;;
28613;SDS011;15806;53.548;9.964;2024-02-14T04:11:20;6.57;;;3.10;;
28613;SDS011;15806;53.548;9.964;2024-02-14T04:13:01;7.33;;;2.80;;
28613;SDS011;15806;53.548;9.964;2024-02-14T04:14:43;4.45;;;2.55;;
28613;SDS011;15806;53.548;9.964;2024-02-14T04:16:23;7.13;;;2.27;;
28613;SDS011;15806;53.548;9.964;2024-02-14T04:18:04;5.33;;;2.10;;
28613;SDS011;15806;53.548;9.964;2024-02-14T04:19:45;6.30;;;2.70;;
28613;SDS011;15806;53.548;9.964;2024-02-14T04:21:25;6.63;;;2.47;;
28613;SDS011;15806;53.548;9.964;2024-02-14T04:23:06;5.07;;;2.77;;
28613;SDS011;15806;53.548;9.964;2024-02-14T04:24:46;14.43;;;3.27;;
28613;SDS011;15806;53.548;9.964;2024-02-14T04:26:27;4.77;;;2.63;;
28613;SDS011;15806;53.548;9.964;2024-02-14T04:28:07;6.23;;;3.30;;
28613;SDS011;15806;53.548;9.964;2024-02-14T04:29:48;7.93;;;2.63;;
28613;SDS011;15806;53.548;9.964;2024-02-14T04:31:28;7.37;;;2.97;;
28613;SDS011;15806;53.548;9.964;2024-02-14T04:33:09;4.57;;;2.50;;
28613;SDS011;15806;53.548;9.964;2024-02-14T04:34:49;7.40;;;2.33;;
28613;SDS011;15806;53.548;9.964;2024-02-14T04:36:30;5.73;;;2.67;;
28613;SDS011;15806;53.548;9.964;2024-02-14T04:38:10;5.43;;;3.27;;
28613;SDS011;15806;53.548;9.964;2024-02-14T04:39:51;5.67;;;2.90;;
28613;SDS011;15806;53.548;9.964;2024-02-14T04:41:31;5.07;;;2.50;;
28613;SDS011;15806;53.548;9.964;2024-02-14T04:43:12;10.10;;;2.63;;
28613;SDS011;15806;53.548;9.964;2024-02-14T04:44:52;4.73;;;3.23;;
28613;SDS011;15806;53.548;9.964;2024-02-14T04:46:33;9.57;;;3.43;;
28613;SDS011;15806;53.548;9.964;2024-02-14T04:48:14;8.38;;;3.13;;
28613;SDS011;15806;53.548;9.964;2024-02-14T04:49:54;6.43;;;3.30;;
28613;SDS011;15806;53.548;9.964;2024-02-14T04:51:35;7.53;;;2.97;;
28613;SDS011;15806;53.548;9.964;2024-02-14T04:53:15;8.47;;;3.63;;
28613;SDS011;15806;53.548;9.964;2024-02-14T04:54:56;9.63;;;3.33;;
28613;SDS011;15806;53.548;9.964;2024-02-14T04:56:36;6.93;;;2.73;;
28613;SDS011;15806;53.548;9.964;2024-02-14T04:58:17;6.33;;;2.90;;
28613;SDS011;15806;53.548;9.964;2024-02-14T04:59:57;6.57;;;2.90;;
28613;SDS011;15806;53.548;9.964;2024-02-14T05:01:38;7.83;;;3.33;;
28613;SDS011;15806;53.548;9.964;2024-02-14T05:03:19;9.57;;;2.83;;
28613;SDS011;15806;53.548;9.964;2024-02-14T05:04:59;6.77;;;3.23;;
28613;SDS011;15806;53.548;9.964;2024-02-14T05:06:40;6.75;;;3.13;;
28613;SDS011;15806;53.548;9.964;2024-02-14T05:08:20;5.03;;;2.70;;
28613;SDS011;15806;53.548;9.964;2024-02-14T05:10:01;10.23;;;4.07;;
28613;SDS011;15806;53.548;9.964;2024-02-14T05:11:42;6.13;;;2.80;;
28613;SDS011;15806;53.548;9.964;2024-02-14T05:13:22;9.40;;;2.80;;
28613;SDS011;15806;53.548;9.964;2024-02-14T05:15:03;6.50;;;3.40;;
28613;SDS011;15806;53.548;9.964;2024-02-14T05:16:44;7.32;;;3.22;;
28613;SDS011;15806;53.548;9.964;2024-02-14T05:18:24;9.97;;;3.80;;
28613;SDS011;15806;53.548;9.964;2024-02-14T05:20:05;7.07;;;3.00;;
28613;SDS011;15806;53.548;9.964;2024-02-14T05:21:46;8.80;;;3.08;;
28613;SDS011;15806;53.548;9.964;2024-02-14T05:23:27;6.17;;;2.70;;
28613;SDS011;15806;53.548;9.964;2024-02-14T05:25:07;11.27;;;3.43;;
28613;SDS011;15806;53.548;9.964;2024-02-14T05:29:06;7.57;;;3.13;;
28613;SDS011;15806;53.548;9.964;2024-02-14T05:30:47;14.90;;;4.33;;
28613;SDS011;15806;53.548;9.964;2024-02-14T05:32:28;13.70;;;3.90;;
28613;SDS011;15806;53.548;9.964;2024-02-14T05:34:08;13.80;;;3.77;;
28613;SDS011;15806;53.548;9.964;2024-02-14T05:35:49;10.20;;;3.50;;
28613;SDS011;15806;53.548;9.964;2024-02-14T05:37:29;10.90;;;3.37;;
28613;SDS011;15806;53.548;9.964;2024-02-14T05:39:10;15.50;;;3.60;;
28613;SDS011;15806;53.548;9.964;2024-02-14T05:40:50;8.83;;;3.97;;
28613;SDS011;15806;53.548;9.964;2024-02-14T05:42:31;5.37;;;3.07;;
28613;SDS011;15806;53.548;9.964;2024-02-14T05:44:11;9.70;;;3.10;;
28613;SDS011;15806;53.548;9.964;2024-02-14T05:45:52;8.40;;;2.87;;
28613;SDS011;15806;53.548;9.964;2024-02-14T05:47:32;6.27;;;2.60;;
28613;SDS011;15806;53.548;9.964;2024-02-14T05:49:13;12.23;;;3.60;;
28613;SDS011;15806;53.548;9.964;2024-02-14T05:50:54;10.43;;;3.33;;
28613;SDS011;15806;53.548;9.964;2024-02-14T05:52:34;6.87;;;3.27;;
28613;SDS011;15806;53.548;9.964;2024-02-14T05:54:15;7.00;;;2.83;;
28613;SDS011;15806;53.548;9.964;2024-02-14T05:55:55;6.70;;;3.40;;
28613;SDS011;15806;53.548;9.964;2024-02-14T05:57:36;11.50;;;3.43;;
28613;SDS011;15806;53.548;9.964;2024-02-14T05:59:16;13.83;;;4.57;;
28613;SDS011;15806;53.548;9.964;2024-02-14T06:00:57;11.20;;;3.50;;
28613;SDS011;15806;53.548;9.964;2024-02-14T06:02:37;6.17;;;3.00;;
28613;SDS011;15806;53.548;9.964;2024-02-14T06:04:18;9.95;;;3.35;;
28613;SDS011;15806;53.548;9.964;2024-02-14T06:05:59;8.23;;;2.90;;
28613;SDS011;15806;53.548;9.964;2024-02-14T06:07:39;9.10;;;3.40;;
28613;SDS011;15806;53.548;9.964;2024-02-14T06:09:20;8.30;;;2.80;;
28613;SDS011;15806;53.548;9.964;2024-02-14T06:11:01;7.43;;;3.27;;
28613;SDS011;15806;53.548;9.964;2024-02-14T06:12:41;12.87;;;5.37;;
28613;SDS011;15806;53.548;9.964;2024-02-14T06:14:22;12.57;;;4.17;;
28613;SDS011;15806;53.548;9.964;2024-02-14T06:16:03;7.03;;;3.38;;
28613;SDS011;15806;53.548;9.964;2024-02-14T06:17:44;9.50;;;2.92;;
28613;SDS011;15806;53.548;9.964;2024-02-14T06:19:24;8.70;;;3.83;;
28613;SDS011;15806;53.548;9.964;2024-02-14T06:21:05;8.67;;;3.43;;
28613;SDS011;15806;53.548;9.964;2024-02-14T06:22:46;8.80;;;3.13;;
28613;SDS011;15806;53.548;9.964;2024-02-14T06:24:26;7.23;;;3.30;;
28613;SDS011;15806;53.548;9.964;2024-02-14T06:26:07;6.77;;;3.50;;
28613;SDS011;15806;53.548;9.964;2024-02-14T06:27:47;7.50;;;3.70;;
28613;SDS011;15806;53.548;9.964;2024-02-14T06:29:28;8.63;;;4.10;;
28613;SDS011;15806;53.548;9.964;2024-02-14T06:31:08;5.93;;;3.13;;
28613;SDS011;15806;53.548;9.964;2024-02-14T06:32:49;8.77;;;3.67;;
28613;SDS011;15806;53.548;9.964;2024-02-14T06:34:29;7.67;;;3.70;;
28613;SDS011;15806;53.548;9.964;2024-02-14T06:36:10;11.93;;;4.10;;
28613;SDS011;15806;53.548;9.964;2024-02-14T06:37:50;6.47;;;2.97;;
28613;SDS011;15806;53.548;9.964;2024-02-14T06:39:31;6.70;;;3.50;;
28613;SDS011;15806;53.548;9.964;2024-02-14T06:41:12;9.13;;;3.80;;
28613;SDS011;15806;53.548;9.964;2024-02-14T06:42:53;13.80;;;3.53;;
28613;SDS011;15806;53.548;9.964;2024-02-14T06:44:33;12.23;;;4.30;;
28613;SDS011;15806;53.548;9.964;2024-02-14T06:46:14;7.40;;;2.80;;
28613;SDS011;15806;53.548;9.964;2024-02-14T06:47:54;6.97;;;3.33;;
28613;SDS011;15806;53.548;9.964;2024-02-14T06:49:35;13.97;;;3.87;;
28613;SDS011;15806;53.548;9.964;2024-02-14T06:51:15;9.30;;;3.80;;
28613;SDS011;15806;53.548;9.964;2024-02-14T06:52:56;11.57;;;3.87;;
28613;SDS011;15806;53.548;9.964;2024-02-14T06:54:37;10.32;;;3.75;;
28613;SDS011;15806;53.548;9.964;2024-02-14T06:56:17;13.27;;;4.10;;
28613;SDS011;15806;53.548;9.964;2024-02-14T06:57:58;13.77;;;4.13;;
28613;SDS011;15806;53.548;9.964;2024-02-14T06:59:39;7.60;;;3.13;;
28613;SDS011;15806;53.548;9.964;2024-02-14T07:01:20;8.17;;;3.67;;
28613;SDS011;15806;53.548;9.964;2024-02-14T07:03:00;8.77;;;3.27;;
28613;SDS011;15806;53.548;9.964;2024-02-14T07:04:41;10.40;;;3.33;;
28613;SDS011;15806;53.548;9.964;2024-02-14T07:06:21;10.33;;;3.87;;
28613;SDS011;15806;53.548;9.964;2024-02-14T07:08:02;9.97;;;3.97;;
28613;SDS011;15806;53.548;9.964;2024-02-14T07:09:43;10.43;;;3.33;;
28613;SDS011;15806;53.548;9.964;2024-02-14T07:11:23;10.57;;;4.13;;
28613;SDS011;15806;53.548;9.964;2024-02-14T07:13:04;11.03;;;4.20;;
28613;SDS011;15806;53.548;9.964;2024-02-14T07:14:46;7.10;;;3.87;;
28613;SDS011;15806;53.548;9.964;2024-02-14T07:16:27;7.18;;;3.83;;
28613;SDS011;15806;53.548;9.964;2024-02-14T07:18:08;9.70;;;4.20;;
28613;SDS011;15806;53.548;9.964;2024-02-14T07:19:49;10.77;;;3.97;;
28613;SDS011;15806;53.548;9.964;2024-02-14T07:21:29;9.70;;;4.63;;
28613;SDS011;15806;53.548;9.964;2024-02-14T07:23:10;10.30;;;3.63;;
28613;SDS011;15806;53.548;9.964;2024-02-14T07:24:51;8.27;;;3.83;;
28613;SDS011;15806;53.548;9.964;2024-02-14T07:26:31;11.53;;;4.00;;
28613;SDS011;15806;53.548;9.964;2024-02-14T07:28:12;7.57;;;3.53;;
28613;SDS011;15806;53.548;9.964;2024-02-14T07:29:52;13.23;;;4.83;;
28613;SDS011;15806;53.548;9.964;2024-02-14T07:31:33;22.93;;;8.67;;
28613;SDS011;15806;53.548;9.964;2024-02-14T07:33:13;9.00;;;4.30;;
28613;SDS011;15806;53.548;9.964;2024-02-14T07:34:54;11.27;;;3.70;;
28613;SDS011;15806;53.548;9.964;2024-02-14T07:36:34;7.97;;;3.33;;
28613;SDS011;15806;53.548;9.964;2024-02-14T07:38:15;13.37;;;3.70;;
28613;SDS011;15806;53.548;9.964;2024-02-14T07:39:55;7.47;;;3.63;;
28613;SDS011;15806;53.548;9.964;2024-02-14T07:41:36;6.87;;;3.57;;
28613;SDS011;15806;53.548;9.964;2024-02-14T07:43:16;10.80;;;4.50;;
28613;SDS011;15806;53.548;9.964;2024-02-14T07:44:57;11.40;;;4.00;;
28613;SDS011;15806;53.548;9.964;2024-02-14T07:46:38;10.17;;;4.87;;
28613;SDS011;15806;53.548;9.964;2024-02-14T07:48:18;10.50;;;3.77;;
28613;SDS011;15806;53.548;9.964;2024-02-14T07:49:59;8.63;;;4.20;;
28613;SDS011;15806;53.548;9.964;2024-02-14T07:51:39;12.30;;;4.50;;
28613;SDS011;15806;53.548;9.964;2024-02-14T07:53:20;11.13;;;4.67;;
28613;SDS011;15806;53.548;9.964;2024-02-14T07:55:00;11.77;;;4.13;;
28613;SDS011;15806;53.548;9.964;2024-02-14T07:56:41;12.93;;;4.77;;
28613;SDS011;15806;53.548;9.964;2024-02-14T07:58:21;11.23;;;4.70;;
28613;SDS011;15806;53.548;9.964;2024-02-14T08:00:05;9.37;;;4.33;;
28613;SDS011;15806;53.548;9.964;2024-02-14T08:01:46;11.13;;;4.45;;
28613;SDS011;15806;53.548;9.964;2024-02-14T08:03:27;12.60;;;5.47;;
28613;SDS011;15806;53.548;9.964;2024-02-14T08:05:07;12.33;;;4.60;;
28613;SDS011;15806;53.548;9.964;2024-02-14T08:06:48;10.57;;;4.07;;
28613;SDS011;15806;53.548;9.964;2024-02-14T08:08:28;9.07;;;3.97;;
28613;SDS011;15806;53.548;9.964;2024-02-14T08:10:09;13.03;;;4.00;;
28613;SDS011;15806;53.548;9.964;2024-02-14T08:11:49;12.30;;;4.07;;
28613;SDS011;15806;53.548;9.964;2024-02-14T08:13:30;9.60;;;4.47;;
28613;SDS011;15806;53.548;9.964;2024-02-14T08:15:10;13.03;;;4.07;;
28613;SDS011;15806;53.548;9.964;2024-02-14T08:16:51;14.43;;;4.83;;
28613;SDS011;15806;53.548;9.964;2024-02-14T08:18:32;7.55;;;3.60;;
28613;SDS011;15806;53.548;9.964;2024-02-14T08:20:12;11.27;;;4.67;;
28613;SDS011;15806;53.548;9.964;2024-02-14T08:21:53;10.67;;;4.43;;
28613;SDS011;15806;53.548;9.964;2024-02-14T08:23:33;9.40;;;4.03;;
28613;SDS011;15806;53.548;9.964;2024-02-14T08:25:14;10.00;;;3.70;;
28613;SDS011;15806;53.548;9.964;2024-02-14T08:26:55;8.00;;;3.72;;
28613;SDS011;15806;53.548;9.964;2024-02-14T08:28:38;7.83;;;3.63;;
28613;SDS011;15806;53.548;9.964;2024-02-14T08:30:19;10.02;;;3.80;;
28613;SDS011;15806;53.548;9.964;2024-02-14T08:31:59;10.20;;;4.47;;
28613;SDS011;15806;53.548;9.964;2024-02-14T08:33:40;7.83;;;3.93;;
28613;SDS011;15806;53.548;9.964;2024-02-14T08:35:20;8.83;;;3.83;;
28613;SDS011;15806;53.548;9.964;2024-02-14T08:37:01;11.07;;;4.53;;
28613;SDS011;15806;53.548;9.964;2024-02-14T08:38:43;8.73;;;4.27;;
28613;SDS011;15806;53.548;9.964;2024-02-14T08:42:04;10.18;;;4.13;;
28613;SDS011;15806;53.548;9.964;2024-02-14T08:43:44;8.73;;;4.03;;
28613;SDS011;15806;53.548;9.964;2024-02-14T08:45:25;8.17;;;3.40;;
28613;SDS011;15806;53.548;9.964;2024-02-14T08:47:06;10.75;;;4.05;;
28613;SDS011;15806;53.548;9.964;2024-02-14T08:48:46;6.90;;;4.07;;
28613;SDS011;15806;53.548;9.964;2024-02-14T08:50:27;9.90;;;3.80;;
28613;SDS011;15806;53.548;9.964;2024-02-14T08:52:08;8.90;;;4.07;;
28613;SDS011;15806;53.548;9.964;2024-02-14T08:53:48;12.60;;;4.03;;
28613;SDS011;15806;53.548;9.964;2024-02-14T08:55:29;7.72;;;3.95;;
28613;SDS011;15806;53.548;9.964;2024-02-14T08:57:10;13.63;;;3.67;;
28613;SDS011;15806;53.548;9.964;2024-02-14T08:58:51;7.05;;;3.70;;
28613;SDS011;15806;53.548;9.964;2024-02-14T09:00:32;9.07;;;4.27;;
28613;SDS011;15806;53.548;9.964;2024-02-14T09:02:12;12.77;;;5.40;;
28613;SDS011;15806;53.548;9.964;2024-02-14T09:03:53;10.90;;;4.93;;
28613;SDS011;15806;53.548;9.964;2024-02-14T09:05:33;10.60;;;4.67;;
28613;SDS011;15806;53.548;9.964;2024-02-14T09:07:14;9.83;;;3.67;;
28613;SDS011;15806;53.548;9.964;2024-02-14T09:08:54;10.93;;;3.60;;
28613;SDS011;15806;53.548;9.964;2024-02-14T09:10:36;9.70;;;4.60;;
28613;SDS011;15806;53.548;9.964;2024-02-14T09:12:16;10.67;;;4.57;;
28613;SDS011;15806;53.548;9.964;2024-02-14T09:13:57;9.70;;;4.07;;
28613;SDS011;15806;53.548;9.964;2024-02-14T09:15:37;10.90;;;4.63;;
28613;SDS011;15806;53.548;9.964;2024-02-14T09:17:18;7.17;;;3.30;;
28613;SDS011;15806;53.548;9.964;2024-02-14T09:18:58;16.50;;;4.60;;
28613;SDS011;15806;53.548;9.964;2024-02-14T09:20:39;11.02;;;4.53;;
28613;SDS011;15806;53.548;9.964;2024-02-14T09:22:20;13.07;;;4.40;;
28613;SDS011;15806;53.548;9.964;2024-02-14T09:24:00;8.77;;;4.17;;
28613;SDS011;15806;53.548;9.964;2024-02-14T09:25:41;13.05;;;3.90;;
28613;SDS011;15806;53.548;9.964;2024-02-14T09:27:22;9.27;;;3.23;;
28613;SDS011;15806;53.548;9.964;2024-02-14T09:29:02;9.93;;;3.97;;
28613;SDS011;15806;53.548;9.964;2024-02-14T09:30:43;8.40;;;2.97;;
28613;SDS011;15806;53.548;9.964;2024-02-14T09:32:24;4.90;;;2.73;;
28613;SDS011;15806;53.548;9.964;2024-02-14T09:34:05;4.30;;;2.50;;
28613;SDS011;15806;53.548;9.964;2024-02-14T09:35:45;8.43;;;2.57;;
28613;SDS011;15806;53.548;9.964;2024-02-14T09:37:26;7.27;;;2.30;;
28613;SDS011;15806;53.548;9.964;2024-02-14T09:39:07;6.63;;;2.72;;
28613;SDS011;15806;53.548;9.964;2024-02-14T09:40:49;5.93;;;3.17;;
28613;SDS011;15806;53.548;9.964;2024-02-14T09:42:42;4.82;;;2.72;;
28613;SDS011;15806;53.548;9.964;2024-02-14T09:44:26;5.38;;;2.35;;
28613;SDS011;15806;53.548;9.964;2024-02-14T09:46:08;3.38;;;1.92;;
28613;SDS011;15806;53.548;9.964;2024-02-14T09:47:48;5.00;;;2.00;;
28613;SDS011;15806;53.548;9.964;2024-02-14T09:49:29;4.85;;;2.20;;
28613;SDS011;15806;53.548;9.964;2024-02-14T09:51:11;4.78;;;2.08;;
28613;SDS011;15806;53.548;9.964;2024-02-14T09:54:33;4.00;;;2.10;;
28613;SDS011;15806;53.548;9.964;2024-02-14T09:56:16;4.93;;;2.53;;
28613;SDS011;15806;53.548;9.964;2024-02-14T09:57:57;6.07;;;2.47;;
28613;SDS011;15806;53.548;9.964;2024-02-14T09:59:38;3.80;;;2.00;;
28613;SDS011;15806;53.548;9.964;2024-02-14T10:01:19;4.53;;;2.25;;
28613;SDS011;15806;53.548;9.964;2024-02-14T10:03:00;6.40;;;2.53;;
28613;SDS011;15806;53.548;9.964;2024-02-14T10:04:40;3.70;;;2.10;;
28613;SDS011;15806;53.548;9.964;2024-02-14T10:06:21;6.67;;;2.63;;
28613;SDS011;15806;53.548;9.964;2024-02-14T10:08:02;4.82;;;2.70;;
28613;SDS011;15806;53.548;9.964;2024-02-14T10:09:43;4.60;;;2.45;;
28613;SDS011;15806;53.548;9.964;2024-02-14T10:11:24;5.70;;;2.80;;
28613;SDS011;15806;53.548;9.964;2024-02-14T10:13:05;4.40;;;2.47;;